sensor_id;sensor_type;location;lat;lon;timestamp;P1;durP1;ratioP1;P2;durP2;ratioP2
6197;SDS011;3132;42.622;23.328;2024-01-06T00:00:12;10.07;;;9.57;;
6197;SDS011;3132;42.622;23.328;2024-01-06T00:02:37;8.93;;;8.53;;
6197;SDS011;3132;42.622;23.328;2024-01-06T00:05:03;10.67;;;10.07;;
6197;SDS011;3132;42.622;23.328;2024-01-06T00:07:28;9.73;;;9.03;;
6197;SDS011;3132;42.622;23.328;2024-01-06T00:09:54;9.53;;;8.83;;
6197;SDS011;3132;42.622;23.328;2024-01-06T00:12:19;8.93;;;8.47;;
6197;SDS011;3132;42.622;23.328;2024-01-06T00:14:44;9.97;;;9.40;;
6197;SDS011;3132;42.622;23.328;2024-01-06T00:17:10;8.60;;;8.20;;
6197;SDS011;3132;42.622;23.328;2024-01-06T00:19:36;8.97;;;8.53;;
6197;SDS011;3132;42.622;23.328;2024-01-06T00:22:01;8.50;;;7.90;;
6197;SDS011;3132;42.622;23.328;2024-01-06T00:24:27;10.03;;;9.53;;
6197;SDS011;3132;42.622;23.328;2024-01-06T00:26:52;9.83;;;9.33;;
6197;SDS011;3132;42.622;23.328;2024-01-06T00:29:18;18.33;;;13.07;;
6197;SDS011;3132;42.622;23.328;2024-01-06T00:31:43;11.10;;;10.33;;
6197;SDS011;3132;42.622;23.328;2024-01-06T00:34:08;9.53;;;8.93;;
6197;SDS011;3132;42.622;23.328;2024-01-06T00:36:34;9.87;;;9.37;;
6197;SDS011;3132;42.622;23.328;2024-01-06T00:38:59;9.47;;;8.87;;
6197;SDS011;3132;42.622;23.328;2024-01-06T00:41:25;9.53;;;9.13;;
6197;SDS011;3132;42.622;23.328;2024-01-06T00:43:50;9.50;;;9.10;;
6197;SDS011;3132;42.622;23.328;2024-01-06T00:46:34;9.07;;;8.67;;
6197;SDS011;3132;42.622;23.328;2024-01-06T00:48:59;9.67;;;9.17;;
6197;SDS011;3132;42.622;23.328;2024-01-06T00:51:24;9.27;;;8.77;;
6197;SDS011;3132;42.622;23.328;2024-01-06T00:53:50;9.67;;;9.27;;
6197;SDS011;3132;42.622;23.328;2024-01-06T00:56:15;9.07;;;8.47;;
6197;SDS011;3132;42.622;23.328;2024-01-06T00:58:40;9.10;;;8.70;;
6197;SDS011;3132;42.622;23.328;2024-01-06T01:01:06;9.90;;;9.33;;
6197;SDS011;3132;42.622;23.328;2024-01-06T01:03:31;9.23;;;8.83;;
6197;SDS011;3132;42.622;23.328;2024-01-06T01:05:56;10.23;;;9.53;;
6197;SDS011;3132;42.622;23.328;2024-01-06T01:08:22;9.77;;;9.17;;
6197;SDS011;3132;42.622;23.328;2024-01-06T01:10:48;10.33;;;9.70;;
6197;SDS011;3132;42.622;23.328;2024-01-06T01:13:13;9.73;;;9.03;;
6197;SDS011;3132;42.622;23.328;2024-01-06T01:15:38;10.37;;;9.60;;
6197;SDS011;3132;42.622;23.328;2024-01-06T01:18:04;10.00;;;9.40;;
6197;SDS011;3132;42.622;23.328;2024-01-06T01:20:29;10.87;;;9.93;;
6197;SDS011;3132;42.622;23.328;2024-01-06T01:22:54;10.83;;;10.13;;
6197;SDS011;3132;42.622;23.328;2024-01-06T01:25:20;9.67;;;8.87;;
6197;SDS011;3132;42.622;23.328;2024-01-06T01:27:45;10.03;;;9.53;;
6197;SDS011;3132;42.622;23.328;2024-01-06T01:30:10;10.17;;;9.67;;
6197;SDS011;3132;42.622;23.328;2024-01-06T01:32:36;10.63;;;9.93;;
6197;SDS011;3132;42.622;23.328;2024-01-06T01:35:02;9.53;;;8.93;;
6197;SDS011;3132;42.622;23.328;2024-01-06T01:37:28;10.87;;;10.17;;
6197;SDS011;3132;42.622;23.328;2024-01-06T01:39:53;9.93;;;9.33;;
6197;SDS011;3132;42.622;23.328;2024-01-06T01:42:19;9.33;;;8.83;;
6197;SDS011;3132;42.622;23.328;2024-01-06T01:44:44;8.97;;;8.47;;
6197;SDS011;3132;42.622;23.328;2024-01-06T01:47:09;9.53;;;9.03;;
6197;SDS011;3132;42.622;23.328;2024-01-06T01:49:35;10.30;;;9.43;;
6197;SDS011;3132;42.622;23.328;2024-01-06T01:52:00;10.20;;;9.60;;
6197;SDS011;3132;42.622;23.328;2024-01-06T01:54:26;10.87;;;10.13;;
6197;SDS011;3132;42.622;23.328;2024-01-06T01:56:52;10.80;;;10.00;;
6197;SDS011;3132;42.622;23.328;2024-01-06T01:59:18;10.03;;;9.53;;
6197;SDS011;3132;42.622;23.328;2024-01-06T02:01:44;9.23;;;8.73;;
6197;SDS011;3132;42.622;23.328;2024-01-06T02:04:12;9.70;;;9.20;;
6197;SDS011;3132;42.622;23.328;2024-01-06T02:06:37;11.13;;;10.53;;
6197;SDS011;3132;42.622;23.328;2024-01-06T02:09:03;9.47;;;9.07;;
6197;SDS011;3132;42.622;23.328;2024-01-06T02:11:28;10.37;;;9.80;;
6197;SDS011;3132;42.622;23.328;2024-01-06T02:13:54;9.63;;;9.13;;
6197;SDS011;3132;42.622;23.328;2024-01-06T02:16:19;9.97;;;9.27;;
6197;SDS011;3132;42.622;23.328;2024-01-06T02:18:44;9.70;;;9.03;;
6197;SDS011;3132;42.622;23.328;2024-01-06T02:21:10;9.67;;;9.10;;
6197;SDS011;3132;42.622;23.328;2024-01-06T02:23:36;10.90;;;10.20;;
6197;SDS011;3132;42.622;23.328;2024-01-06T02:26:02;13.93;;;12.07;;
6197;SDS011;3132;42.622;23.328;2024-01-06T02:28:27;10.10;;;9.40;;
6197;SDS011;3132;42.622;23.328;2024-01-06T02:30:53;10.10;;;9.30;;
6197;SDS011;3132;42.622;23.328;2024-01-06T02:33:18;13.50;;;12.33;;
6197;SDS011;3132;42.622;23.328;2024-01-06T02:35:45;10.90;;;10.07;;
6197;SDS011;3132;42.622;23.328;2024-01-06T02:38:11;11.60;;;10.77;;
6197;SDS011;3132;42.622;23.328;2024-01-06T02:40:36;11.93;;;11.10;;
6197;SDS011;3132;42.622;23.328;2024-01-06T02:43:02;10.93;;;10.10;;
6197;SDS011;3132;42.622;23.328;2024-01-06T02:45:27;10.53;;;9.73;;
6197;SDS011;3132;42.622;23.328;2024-01-06T02:47:52;11.03;;;10.13;;
6197;SDS011;3132;42.622;23.328;2024-01-06T02:50:18;11.00;;;10.23;;
6197;SDS011;3132;42.622;23.328;2024-01-06T02:52:43;10.90;;;10.00;;
6197;SDS011;3132;42.622;23.328;2024-01-06T02:55:10;11.40;;;10.50;;
6197;SDS011;3132;42.622;23.328;2024-01-06T02:57:35;11.07;;;10.37;;
6197;SDS011;3132;42.622;23.328;2024-01-06T03:00:01;11.03;;;10.33;;
6197;SDS011;3132;42.622;23.328;2024-01-06T03:02:26;9.50;;;9.10;;
6197;SDS011;3132;42.622;23.328;2024-01-06T03:04:51;10.43;;;9.83;;
6197;SDS011;3132;42.622;23.328;2024-01-06T03:07:17;9.87;;;9.17;;
6197;SDS011;3132;42.622;23.328;2024-01-06T03:09:43;9.67;;;9.17;;
6197;SDS011;3132;42.622;23.328;2024-01-06T03:12:08;9.47;;;8.97;;
6197;SDS011;3132;42.622;23.328;2024-01-06T03:14:34;9.93;;;9.33;;
6197;SDS011;3132;42.622;23.328;2024-01-06T03:17:00;9.67;;;9.17;;
6197;SDS011;3132;42.622;23.328;2024-01-06T03:19:26;9.33;;;8.83;;
6197;SDS011;3132;42.622;23.328;2024-01-06T03:21:52;9.63;;;9.13;;
6197;SDS011;3132;42.622;23.328;2024-01-06T03:24:18;9.13;;;8.73;;
6197;SDS011;3132;42.622;23.328;2024-01-06T03:26:44;9.77;;;9.37;;
6197;SDS011;3132;42.622;23.328;2024-01-06T03:29:09;10.57;;;10.07;;
6197;SDS011;3132;42.622;23.328;2024-01-06T03:31:34;10.43;;;9.93;;
6197;SDS011;3132;42.622;23.328;2024-01-06T03:34:00;9.40;;;9.00;;
6197;SDS011;3132;42.622;23.328;2024-01-06T03:36:25;9.77;;;9.27;;
6197;SDS011;3132;42.622;23.328;2024-01-06T03:38:50;9.03;;;8.63;;
6197;SDS011;3132;42.622;23.328;2024-01-06T03:41:16;10.07;;;9.23;;
6197;SDS011;3132;42.622;23.328;2024-01-06T03:43:41;9.90;;;9.13;;
6197;SDS011;3132;42.622;23.328;2024-01-06T03:46:06;8.60;;;8.10;;
6197;SDS011;3132;42.622;23.328;2024-01-06T03:48:32;10.93;;;10.20;;
6197;SDS011;3132;42.622;23.328;2024-01-06T03:50:59;10.53;;;10.00;;
6197;SDS011;3132;42.622;23.328;2024-01-06T03:53:25;10.50;;;9.70;;
6197;SDS011;3132;42.622;23.328;2024-01-06T03:55:50;9.53;;;8.77;;
6197;SDS011;3132;42.622;23.328;2024-01-06T03:58:17;10.47;;;9.77;;
6197;SDS011;3132;42.622;23.328;2024-01-06T04:00:42;10.23;;;9.53;;
6197;SDS011;3132;42.622;23.328;2024-01-06T04:03:08;10.00;;;9.27;;
6197;SDS011;3132;42.622;23.328;2024-01-06T04:05:33;10.07;;;9.13;;
6197;SDS011;3132;42.622;23.328;2024-01-06T04:07:59;10.53;;;9.83;;
6197;SDS011;3132;42.622;23.328;2024-01-06T04:10:24;9.27;;;8.77;;
6197;SDS011;3132;42.622;23.328;2024-01-06T04:12:49;9.80;;;9.20;;
6197;SDS011;3132;42.622;23.328;2024-01-06T04:15:15;9.63;;;9.23;;
6197;SDS011;3132;42.622;23.328;2024-01-06T04:17:41;9.80;;;9.07;;
6197;SDS011;3132;42.622;23.328;2024-01-06T04:20:06;8.73;;;8.03;;
6197;SDS011;3132;42.622;23.328;2024-01-06T04:22:32;10.67;;;9.70;;
6197;SDS011;3132;42.622;23.328;2024-01-06T04:24:58;10.30;;;9.80;;
6197;SDS011;3132;42.622;23.328;2024-01-06T04:27:23;9.87;;;9.37;;
6197;SDS011;3132;42.622;23.328;2024-01-06T04:29:48;9.40;;;8.90;;
6197;SDS011;3132;42.622;23.328;2024-01-06T04:32:18;10.43;;;9.90;;
6197;SDS011;3132;42.622;23.328;2024-01-06T04:34:43;10.57;;;9.97;;
6197;SDS011;3132;42.622;23.328;2024-01-06T04:37:09;9.70;;;9.20;;
6197;SDS011;3132;42.622;23.328;2024-01-06T04:39:34;10.43;;;9.83;;
6197;SDS011;3132;42.622;23.328;2024-01-06T04:41:59;10.27;;;9.77;;
6197;SDS011;3132;42.622;23.328;2024-01-06T04:44:25;11.17;;;10.40;;
6197;SDS011;3132;42.622;23.328;2024-01-06T04:46:50;9.93;;;9.33;;
6197;SDS011;3132;42.622;23.328;2024-01-06T04:49:15;10.00;;;9.07;;
6197;SDS011;3132;42.622;23.328;2024-01-06T04:51:41;10.00;;;9.40;;
6197;SDS011;3132;42.622;23.328;2024-01-06T04:54:06;10.00;;;9.40;;
6197;SDS011;3132;42.622;23.328;2024-01-06T04:56:31;10.13;;;9.53;;
6197;SDS011;3132;42.622;23.328;2024-01-06T04:58:57;10.43;;;9.83;;
6197;SDS011;3132;42.622;23.328;2024-01-06T05:01:22;10.50;;;9.77;;
6197;SDS011;3132;42.622;23.328;2024-01-06T05:03:48;9.87;;;9.17;;
6197;SDS011;3132;42.622;23.328;2024-01-06T05:06:13;9.17;;;8.67;;
6197;SDS011;3132;42.622;23.328;2024-01-06T05:08:39;9.97;;;9.30;;
6197;SDS011;3132;42.622;23.328;2024-01-06T05:11:09;10.67;;;9.97;;
6197;SDS011;3132;42.622;23.328;2024-01-06T05:13:35;10.43;;;9.83;;
6197;SDS011;3132;42.622;23.328;2024-01-06T05:16:00;11.27;;;10.73;;
6197;SDS011;3132;42.622;23.328;2024-01-06T05:18:26;10.53;;;9.83;;
6197;SDS011;3132;42.622;23.328;2024-01-06T05:20:51;10.47;;;9.87;;
6197;SDS011;3132;42.622;23.328;2024-01-06T05:23:17;10.87;;;10.17;;
6197;SDS011;3132;42.622;23.328;2024-01-06T05:25:42;10.63;;;10.03;;
6197;SDS011;3132;42.622;23.328;2024-01-06T05:28:07;10.43;;;9.73;;
6197;SDS011;3132;42.622;23.328;2024-01-06T05:30:33;11.50;;;10.90;;
6197;SDS011;3132;42.622;23.328;2024-01-06T05:32:58;10.40;;;9.60;;
6197;SDS011;3132;42.622;23.328;2024-01-06T05:35:23;11.57;;;10.87;;
6197;SDS011;3132;42.622;23.328;2024-01-06T05:37:49;11.27;;;10.57;;
6197;SDS011;3132;42.622;23.328;2024-01-06T05:40:14;10.60;;;9.80;;
6197;SDS011;3132;42.622;23.328;2024-01-06T05:42:40;11.03;;;10.43;;
6197;SDS011;3132;42.622;23.328;2024-01-06T05:45:05;10.93;;;10.00;;
6197;SDS011;3132;42.622;23.328;2024-01-06T05:47:31;11.43;;;10.40;;
6197;SDS011;3132;42.622;23.328;2024-01-06T05:49:56;10.17;;;9.57;;
6197;SDS011;3132;42.622;23.328;2024-01-06T05:52:22;11.53;;;10.90;;
6197;SDS011;3132;42.622;23.328;2024-01-06T05:54:48;11.37;;;10.67;;
6197;SDS011;3132;42.622;23.328;2024-01-06T05:57:14;11.63;;;10.43;;
6197;SDS011;3132;42.622;23.328;2024-01-06T05:59:39;11.80;;;11.03;;
6197;SDS011;3132;42.622;23.328;2024-01-06T06:02:05;10.57;;;9.63;;
6197;SDS011;3132;42.622;23.328;2024-01-06T06:04:31;10.90;;;10.17;;
6197;SDS011;3132;42.622;23.328;2024-01-06T06:06:56;9.73;;;9.23;;
6197;SDS011;3132;42.622;23.328;2024-01-06T06:09:21;10.77;;;10.27;;
6197;SDS011;3132;42.622;23.328;2024-01-06T06:11:47;11.47;;;10.57;;
6197;SDS011;3132;42.622;23.328;2024-01-06T06:14:13;11.43;;;10.63;;
6197;SDS011;3132;42.622;23.328;2024-01-06T06:16:38;10.13;;;9.53;;
6197;SDS011;3132;42.622;23.328;2024-01-06T06:19:04;11.07;;;10.13;;
6197;SDS011;3132;42.622;23.328;2024-01-06T06:21:29;10.63;;;10.03;;
6197;SDS011;3132;42.622;23.328;2024-01-06T06:23:55;10.57;;;9.77;;
6197;SDS011;3132;42.622;23.328;2024-01-06T06:26:20;10.13;;;9.53;;
6197;SDS011;3132;42.622;23.328;2024-01-06T06:28:45;11.07;;;10.37;;
6197;SDS011;3132;42.622;23.328;2024-01-06T06:31:11;10.27;;;9.67;;
6197;SDS011;3132;42.622;23.328;2024-01-06T06:33:36;11.33;;;10.43;;
6197;SDS011;3132;42.622;23.328;2024-01-06T06:36:01;10.40;;;9.80;;
6197;SDS011;3132;42.622;23.328;2024-01-06T06:38:27;11.00;;;10.27;;
6197;SDS011;3132;42.622;23.328;2024-01-06T06:40:53;10.00;;;9.50;;
6197;SDS011;3132;42.622;23.328;2024-01-06T06:43:18;9.70;;;9.20;;
6197;SDS011;3132;42.622;23.328;2024-01-06T06:45:44;11.60;;;10.97;;
6197;SDS011;3132;42.622;23.328;2024-01-06T06:48:09;10.40;;;9.80;;
6197;SDS011;3132;42.622;23.328;2024-01-06T06:50:35;10.23;;;9.27;;
6197;SDS011;3132;42.622;23.328;2024-01-06T06:53:00;11.17;;;10.33;;
6197;SDS011;3132;42.622;23.328;2024-01-06T06:55:26;11.57;;;10.77;;
6197;SDS011;3132;42.622;23.328;2024-01-06T06:57:52;12.37;;;11.30;;
6197;SDS011;3132;42.622;23.328;2024-01-06T07:00:18;11.13;;;10.37;;
6197;SDS011;3132;42.622;23.328;2024-01-06T07:02:43;12.23;;;11.00;;
6197;SDS011;3132;42.622;23.328;2024-01-06T07:05:08;22.13;;;15.57;;
6197;SDS011;3132;42.622;23.328;2024-01-06T07:07:34;30.77;;;18.20;;
6197;SDS011;3132;42.622;23.328;2024-01-06T07:10:00;43.93;;;23.47;;
6197;SDS011;3132;42.622;23.328;2024-01-06T07:12:26;25.63;;;15.40;;
6197;SDS011;3132;42.622;23.328;2024-01-06T07:14:52;21.37;;;15.70;;
6197;SDS011;3132;42.622;23.328;2024-01-06T07:17:18;16.23;;;13.13;;
6197;SDS011;3132;42.622;23.328;2024-01-06T07:19:43;11.87;;;10.87;;
6197;SDS011;3132;42.622;23.328;2024-01-06T07:22:08;12.10;;;11.23;;
6197;SDS011;3132;42.622;23.328;2024-01-06T07:24:34;11.70;;;10.87;;
6197;SDS011;3132;42.622;23.328;2024-01-06T07:27:01;11.27;;;10.57;;
6197;SDS011;3132;42.622;23.328;2024-01-06T07:29:27;11.27;;;10.53;;
6197;SDS011;3132;42.622;23.328;2024-01-06T07:31:53;11.83;;;10.93;;
6197;SDS011;3132;42.622;23.328;2024-01-06T07:34:18;12.27;;;11.37;;
6197;SDS011;3132;42.622;23.328;2024-01-06T07:36:43;11.60;;;10.97;;
6197;SDS011;3132;42.622;23.328;2024-01-06T07:39:09;11.73;;;10.93;;
6197;SDS011;3132;42.622;23.328;2024-01-06T07:41:34;11.73;;;10.53;;
6197;SDS011;3132;42.622;23.328;2024-01-06T07:43:59;13.07;;;11.77;;
6197;SDS011;3132;42.622;23.328;2024-01-06T07:46:27;12.13;;;11.03;;
6197;SDS011;3132;42.622;23.328;2024-01-06T07:48:52;11.87;;;10.90;;
6197;SDS011;3132;42.622;23.328;2024-01-06T07:51:18;12.60;;;11.57;;
6197;SDS011;3132;42.622;23.328;2024-01-06T07:53:43;16.33;;;11.83;;
6197;SDS011;3132;42.622;23.328;2024-01-06T07:56:08;11.47;;;10.37;;
6197;SDS011;3132;42.622;23.328;2024-01-06T07:58:34;12.40;;;11.10;;
6197;SDS011;3132;42.622;23.328;2024-01-06T08:00:59;14.87;;;12.77;;
6197;SDS011;3132;42.622;23.328;2024-01-06T08:03:25;14.10;;;12.40;;
6197;SDS011;3132;42.622;23.328;2024-01-06T08:05:50;14.47;;;13.07;;
6197;SDS011;3132;42.622;23.328;2024-01-06T08:08:15;16.97;;;13.27;;
6197;SDS011;3132;42.622;23.328;2024-01-06T08:10:42;14.20;;;12.70;;
6197;SDS011;3132;42.622;23.328;2024-01-06T08:13:07;14.07;;;12.70;;
6197;SDS011;3132;42.622;23.328;2024-01-06T08:15:33;12.33;;;11.23;;
6197;SDS011;3132;42.622;23.328;2024-01-06T08:17:59;16.13;;;12.23;;
6197;SDS011;3132;42.622;23.328;2024-01-06T08:20:24;14.67;;;13.17;;
6197;SDS011;3132;42.622;23.328;2024-01-06T08:22:49;13.80;;;12.60;;
6197;SDS011;3132;42.622;23.328;2024-01-06T08:25:15;14.67;;;12.93;;
6197;SDS011;3132;42.622;23.328;2024-01-06T08:27:42;12.80;;;11.73;;
6197;SDS011;3132;42.622;23.328;2024-01-06T08:30:08;13.53;;;12.43;;
6197;SDS011;3132;42.622;23.328;2024-01-06T08:32:33;12.70;;;11.57;;
6197;SDS011;3132;42.622;23.328;2024-01-06T08:34:59;12.33;;;11.33;;
6197;SDS011;3132;42.622;23.328;2024-01-06T08:37:24;14.70;;;13.40;;
6197;SDS011;3132;42.622;23.328;2024-01-06T08:39:49;13.93;;;11.47;;
6197;SDS011;3132;42.622;23.328;2024-01-06T08:42:15;12.50;;;11.53;;
6197;SDS011;3132;42.622;23.328;2024-01-06T08:44:40;13.40;;;12.40;;
6197;SDS011;3132;42.622;23.328;2024-01-06T08:47:06;13.97;;;12.70;;
6197;SDS011;3132;42.622;23.328;2024-01-06T08:49:31;12.97;;;11.83;;
6197;SDS011;3132;42.622;23.328;2024-01-06T08:51:57;11.87;;;10.83;;
6197;SDS011;3132;42.622;23.328;2024-01-06T08:54:23;13.03;;;11.80;;
6197;SDS011;3132;42.622;23.328;2024-01-06T08:56:48;14.37;;;12.90;;
6197;SDS011;3132;42.622;23.328;2024-01-06T08:59:14;15.97;;;13.57;;
6197;SDS011;3132;42.622;23.328;2024-01-06T09:01:39;13.63;;;12.20;;
6197;SDS011;3132;42.622;23.328;2024-01-06T09:04:04;18.63;;;12.93;;
6197;SDS011;3132;42.622;23.328;2024-01-06T09:06:31;16.77;;;15.17;;
6197;SDS011;3132;42.622;23.328;2024-01-06T09:08:57;18.00;;;14.10;;
6197;SDS011;3132;42.622;23.328;2024-01-06T09:11:22;15.57;;;13.67;;
6197;SDS011;3132;42.622;23.328;2024-01-06T09:13:47;13.90;;;12.50;;
6197;SDS011;3132;42.622;23.328;2024-01-06T09:16:13;16.03;;;14.40;;
6197;SDS011;3132;42.622;23.328;2024-01-06T09:18:39;19.30;;;17.50;;
6197;SDS011;3132;42.622;23.328;2024-01-06T09:21:05;15.20;;;13.67;;
6197;SDS011;3132;42.622;23.328;2024-01-06T09:23:30;14.93;;;13.23;;
6197;SDS011;3132;42.622;23.328;2024-01-06T09:25:56;13.77;;;12.33;;
6197;SDS011;3132;42.622;23.328;2024-01-06T09:28:22;14.67;;;13.20;;
6197;SDS011;3132;42.622;23.328;2024-01-06T09:30:48;19.63;;;13.80;;
6197;SDS011;3132;42.622;23.328;2024-01-06T09:33:14;16.23;;;12.07;;
6197;SDS011;3132;42.622;23.328;2024-01-06T09:35:41;15.40;;;12.07;;
6197;SDS011;3132;42.622;23.328;2024-01-06T09:38:07;12.80;;;11.60;;
6197;SDS011;3132;42.622;23.328;2024-01-06T09:40:32;11.33;;;10.30;;
6197;SDS011;3132;42.622;23.328;2024-01-06T09:42:59;11.17;;;10.37;;
6197;SDS011;3132;42.622;23.328;2024-01-06T09:45:24;10.70;;;10.00;;
6197;SDS011;3132;42.622;23.328;2024-01-06T09:47:50;18.87;;;12.90;;
6197;SDS011;3132;42.622;23.328;2024-01-06T09:50:19;16.77;;;14.60;;
6197;SDS011;3132;42.622;23.328;2024-01-06T09:52:45;14.07;;;12.63;;
6197;SDS011;3132;42.622;23.328;2024-01-06T09:55:18;13.27;;;11.97;;
6197;SDS011;3132;42.622;23.328;2024-01-06T09:57:52;19.50;;;12.93;;
6197;SDS011;3132;42.622;23.328;2024-01-06T10:00:18;14.57;;;13.00;;
6197;SDS011;3132;42.622;23.328;2024-01-06T10:02:44;16.17;;;13.17;;
6197;SDS011;3132;42.622;23.328;2024-01-06T10:05:11;17.17;;;13.67;;
6197;SDS011;3132;42.622;23.328;2024-01-06T10:07:38;15.13;;;13.63;;
6197;SDS011;3132;42.622;23.328;2024-01-06T10:10:06;16.70;;;14.97;;
6197;SDS011;3132;42.622;23.328;2024-01-06T10:12:32;15.27;;;13.67;;
6197;SDS011;3132;42.622;23.328;2024-01-06T10:14:57;15.50;;;13.97;;
6197;SDS011;3132;42.622;23.328;2024-01-06T10:17:23;15.73;;;14.00;;
6197;SDS011;3132;42.622;23.328;2024-01-06T10:19:48;15.00;;;13.40;;
6197;SDS011;3132;42.622;23.328;2024-01-06T10:22:14;13.97;;;12.80;;
6197;SDS011;3132;42.622;23.328;2024-01-06T10:24:40;13.83;;;12.47;;
6197;SDS011;3132;42.622;23.328;2024-01-06T10:27:05;14.77;;;13.43;;
6197;SDS011;3132;42.622;23.328;2024-01-06T10:29:31;14.20;;;12.93;;
6197;SDS011;3132;42.622;23.328;2024-01-06T10:31:57;14.93;;;12.20;;
6197;SDS011;3132;42.622;23.328;2024-01-06T10:34:23;17.90;;;13.13;;
6197;SDS011;3132;42.622;23.328;2024-01-06T10:36:49;16.07;;;14.37;;
6197;SDS011;3132;42.622;23.328;2024-01-06T10:39:16;18.07;;;16.13;;
6197;SDS011;3132;42.622;23.328;2024-01-06T10:41:43;21.90;;;16.37;;
6197;SDS011;3132;42.622;23.328;2024-01-06T10:44:10;22.43;;;18.47;;
6197;SDS011;3132;42.622;23.328;2024-01-06T10:46:36;25.90;;;17.90;;
6197;SDS011;3132;42.622;23.328;2024-01-06T10:49:03;24.13;;;19.30;;
6197;SDS011;3132;42.622;23.328;2024-01-06T10:51:30;25.93;;;18.60;;
6197;SDS011;3132;42.622;23.328;2024-01-06T10:53:58;29.43;;;22.43;;
6197;SDS011;3132;42.622;23.328;2024-01-06T10:56:26;32.57;;;20.53;;
6197;SDS011;3132;42.622;23.328;2024-01-06T10:58:51;25.87;;;18.97;;
6197;SDS011;3132;42.622;23.328;2024-01-06T11:01:22;24.33;;;20.40;;
6197;SDS011;3132;42.622;23.328;2024-01-06T11:03:49;24.10;;;19.87;;
6197;SDS011;3132;42.622;23.328;2024-01-06T11:06:15;32.23;;;20.93;;
6197;SDS011;3132;42.622;23.328;2024-01-06T11:11:20;24.80;;;17.10;;
6197;SDS011;3132;42.622;23.328;2024-01-06T11:13:47;29.80;;;16.80;;
6197;SDS011;3132;42.622;23.328;2024-01-06T11:19:00;16.40;;;14.70;;
6197;SDS011;3132;42.622;23.328;2024-01-06T11:21:26;21.70;;;14.43;;
6197;SDS011;3132;42.622;23.328;2024-01-06T11:24:09;18.27;;;15.73;;
6197;SDS011;3132;42.622;23.328;2024-01-06T11:26:39;18.70;;;15.23;;
6197;SDS011;3132;42.622;23.328;2024-01-06T11:29:05;18.07;;;16.17;;
6197;SDS011;3132;42.622;23.328;2024-01-06T11:31:32;21.70;;;17.30;;
6197;SDS011;3132;42.622;23.328;2024-01-06T11:34:11;21.83;;;17.23;;
6197;SDS011;3132;42.622;23.328;2024-01-06T11:36:47;17.13;;;15.43;;
6197;SDS011;3132;42.622;23.328;2024-01-06T11:42:04;37.43;;;19.27;;
6197;SDS011;3132;42.622;23.328;2024-01-06T11:44:33;27.27;;;18.43;;
6197;SDS011;3132;42.622;23.328;2024-01-06T11:46:59;21.73;;;18.63;;
6197;SDS011;3132;42.622;23.328;2024-01-06T11:49:26;22.43;;;19.80;;
6197;SDS011;3132;42.622;23.328;2024-01-06T11:51:55;24.30;;;18.33;;
6197;SDS011;3132;42.622;23.328;2024-01-06T11:54:21;25.63;;;17.93;;
6197;SDS011;3132;42.622;23.328;2024-01-06T11:56:47;25.70;;;19.37;;
6197;SDS011;3132;42.622;23.328;2024-01-06T11:59:13;27.50;;;19.83;;
6197;SDS011;3132;42.622;23.328;2024-01-06T12:01:38;30.03;;;19.80;;
6197;SDS011;3132;42.622;23.328;2024-01-06T12:04:04;32.70;;;21.57;;
6197;SDS011;3132;42.622;23.328;2024-01-06T12:06:30;31.17;;;20.43;;
6197;SDS011;3132;42.622;23.328;2024-01-06T12:09:06;26.37;;;18.73;;
6197;SDS011;3132;42.622;23.328;2024-01-06T12:11:31;24.27;;;19.17;;
6197;SDS011;3132;42.622;23.328;2024-01-06T12:13:57;22.77;;;16.40;;
6197;SDS011;3132;42.622;23.328;2024-01-06T12:16:22;23.50;;;18.60;;
6197;SDS011;3132;42.622;23.328;2024-01-06T12:18:52;22.27;;;16.63;;
6197;SDS011;3132;42.622;23.328;2024-01-06T12:21:20;31.87;;;17.90;;
6197;SDS011;3132;42.622;23.328;2024-01-06T12:23:47;20.20;;;16.53;;
6197;SDS011;3132;42.622;23.328;2024-01-06T12:26:12;18.33;;;15.63;;
6197;SDS011;3132;42.622;23.328;2024-01-06T12:28:38;17.50;;;15.80;;
6197;SDS011;3132;42.622;23.328;2024-01-06T12:31:04;17.47;;;15.63;;
6197;SDS011;3132;42.622;23.328;2024-01-06T12:33:33;16.37;;;14.40;;
6197;SDS011;3132;42.622;23.328;2024-01-06T12:36:02;18.33;;;16.47;;
6197;SDS011;3132;42.622;23.328;2024-01-06T12:38:29;17.83;;;15.80;;
6197;SDS011;3132;42.622;23.328;2024-01-06T12:40:55;17.90;;;16.00;;
6197;SDS011;3132;42.622;23.328;2024-01-06T12:43:20;21.40;;;15.40;;
6197;SDS011;3132;42.622;23.328;2024-01-06T12:45:46;19.07;;;17.03;;
6197;SDS011;3132;42.622;23.328;2024-01-06T12:48:11;18.10;;;16.20;;
6197;SDS011;3132;42.622;23.328;2024-01-06T12:50:36;19.07;;;15.20;;
6197;SDS011;3132;42.622;23.328;2024-01-06T12:53:02;19.70;;;15.83;;
6197;SDS011;3132;42.622;23.328;2024-01-06T12:55:27;20.03;;;16.13;;
6197;SDS011;3132;42.622;23.328;2024-01-06T12:57:53;22.20;;;17.43;;
6197;SDS011;3132;42.622;23.328;2024-01-06T13:00:19;23.57;;;18.23;;
6197;SDS011;3132;42.622;23.328;2024-01-06T13:02:44;22.47;;;19.23;;
6197;SDS011;3132;42.622;23.328;2024-01-06T13:05:10;26.67;;;19.77;;
6197;SDS011;3132;42.622;23.328;2024-01-06T13:07:35;28.60;;;19.50;;
6197;SDS011;3132;42.622;23.328;2024-01-06T13:10:01;28.33;;;20.30;;
6197;SDS011;3132;42.622;23.328;2024-01-06T13:12:26;31.53;;;20.30;;
6197;SDS011;3132;42.622;23.328;2024-01-06T13:14:54;31.47;;;19.93;;
6197;SDS011;3132;42.622;23.328;2024-01-06T13:17:19;29.57;;;19.27;;
6197;SDS011;3132;42.622;23.328;2024-01-06T13:19:44;23.43;;;20.37;;
6197;SDS011;3132;42.622;23.328;2024-01-06T13:22:10;23.03;;;19.63;;
6197;SDS011;3132;42.622;23.328;2024-01-06T13:24:35;26.60;;;20.13;;
6197;SDS011;3132;42.622;23.328;2024-01-06T13:27:01;28.17;;;20.10;;
6197;SDS011;3132;42.622;23.328;2024-01-06T13:29:28;25.90;;;20.57;;
6197;SDS011;3132;42.622;23.328;2024-01-06T13:31:54;21.90;;;18.87;;
6197;SDS011;3132;42.622;23.328;2024-01-06T13:34:19;26.37;;;19.60;;
6197;SDS011;3132;42.622;23.328;2024-01-06T13:36:45;26.57;;;19.43;;
6197;SDS011;3132;42.622;23.328;2024-01-06T13:39:10;30.27;;;19.10;;
6197;SDS011;3132;42.622;23.328;2024-01-06T13:41:45;28.50;;;18.70;;
6197;SDS011;3132;42.622;23.328;2024-01-06T13:44:11;24.70;;;18.03;;
6197;SDS011;3132;42.622;23.328;2024-01-06T13:46:36;26.33;;;17.33;;
6197;SDS011;3132;42.622;23.328;2024-01-06T13:49:02;29.43;;;17.67;;
6197;SDS011;3132;42.622;23.328;2024-01-06T13:51:27;29.30;;;17.80;;
6197;SDS011;3132;42.622;23.328;2024-01-06T13:53:53;28.27;;;18.50;;
6197;SDS011;3132;42.622;23.328;2024-01-06T13:56:19;25.97;;;17.80;;
6197;SDS011;3132;42.622;23.328;2024-01-06T13:58:44;26.67;;;18.57;;
6197;SDS011;3132;42.622;23.328;2024-01-06T14:01:10;32.50;;;19.03;;
6197;SDS011;3132;42.622;23.328;2024-01-06T14:03:36;28.57;;;18.77;;
6197;SDS011;3132;42.622;23.328;2024-01-06T14:06:01;25.93;;;18.83;;
6197;SDS011;3132;42.622;23.328;2024-01-06T14:08:27;35.83;;;22.40;;
6197;SDS011;3132;42.622;23.328;2024-01-06T14:10:53;26.57;;;19.47;;
6197;SDS011;3132;42.622;23.328;2024-01-06T14:13:18;31.97;;;21.33;;
6197;SDS011;3132;42.622;23.328;2024-01-06T14:15:43;32.37;;;19.63;;
6197;SDS011;3132;42.622;23.328;2024-01-06T14:18:09;27.03;;;19.40;;
6197;SDS011;3132;42.622;23.328;2024-01-06T14:20:35;26.10;;;19.17;;
6197;SDS011;3132;42.622;23.328;2024-01-06T14:23:03;26.33;;;21.40;;
6197;SDS011;3132;42.622;23.328;2024-01-06T14:25:29;27.50;;;20.63;;
6197;SDS011;3132;42.622;23.328;2024-01-06T14:27:54;34.43;;;18.00;;
6197;SDS011;3132;42.622;23.328;2024-01-06T14:30:19;23.93;;;17.97;;
6197;SDS011;3132;42.622;23.328;2024-01-06T14:32:45;20.40;;;17.53;;
6197;SDS011;3132;42.622;23.328;2024-01-06T14:35:10;19.20;;;17.13;;
6197;SDS011;3132;42.622;23.328;2024-01-06T14:37:38;14.70;;;13.17;;
6197;SDS011;3132;42.622;23.328;2024-01-06T14:40:03;23.87;;;17.60;;